POF weather

Poplar Bluff Municipal Airport
Poplar Bluff, Missouri, United States

Public forecast

Using degrees Fahrenheit for public forecast. Weather courtesy of forecast.io.

METAR (pilot weather report)

Retrieved 2019/06/20 19:53 UTC (41 minutes ago):

KPOF 201953Z AUTO 00000KT 10SM SCT046 29/19 A2982 RMK AO2 SLP091 T02890194

TAF (pilot weather forecast)

Closest forecast is Cape Girardeau Regional Airport, 45.2 nm (83.7 km) NE. Retrieved 2019/06/20 18:36 UTC (2 hours ago):

TAF KCGI 201735Z 2018/2118 29009KT P6SM BKN035 FM210000 VRB05KT P6SM SCT100